CDT,Max TemperatureF,Mean TemperatureF,Min TemperatureF,Max Dew PointF,MeanDew PointF,Min DewpointF,Max Humidity, Mean Humidity, Min Humidity, Max Sea Level PressureIn, Mean Sea Level PressureIn, Min Sea Level PressureIn, Max VisibilityMiles, Mean VisibilityMiles, Min VisibilityMiles, Max Wind SpeedMPH, Mean Wind SpeedMPH, Max Gust SpeedMPH,PrecipitationIn, CloudCover, Events, WindDirDegrees
2013-9-1,104,92,80,66,61,55,61,41,20,29.91,29.86,29.79,10,10,7,10,6,17,0.00,0,,192
2013-9-2,89,82,75,73,69,66,89,64,46,30.05,29.93,29.88,10,10,5,7,3,,0.01,1,,59
2013-9-3,96,84,73,70,63,54,70,52,30,30.03,29.97,29.91,10,10,10,9,4,20,0.00,1,,9
2013-9-4,98,86,73,66,61,57,69,47,25,30.07,30.01,29.96,10,10,10,9,3,,0.00,0,,61
2013-9-5,96,86,77,70,64,57,74,53,27,30.14,30.08,30.02,10,10,10,9,3,,0.00,0,,110
2013-9-6,98,88,78,70,62,55,69,48,24,30.12,30.05,29.97,10,10,10,7,2,,0.00,1,,127
2013-9-7,96,86,77,70,63,55,74,51,26,30.07,30.01,29.94,10,10,10,12,5,18,0.00,1,,183
2013-9-8,95,83,71,68,63,57,83,57,28,30.03,29.98,29.89,10,10,10,10,4,17,0.00,0,,166
2013-9-9,95,84,73,68,64,59,78,57,30,30.04,29.98,29.93,10,10,10,14,6,18,0.00,1,,185
2013-9-10,93,84,75,70,64,55,83,59,29,30.13,30.06,30.02,10,10,10,13,6,21,0.00,0,,153
2013-9-11,95,84,73,70,64,61,74,59,32,30.16,30.10,30.03,10,10,10,15,3,33,0.00,1,,137
2013-9-12,95,85,75,64,63,61,69,55,32,30.11,30.04,29.95,10,10,10,6,2,,0.00,1,,147
2013-9-13,95,86,77,68,64,59,69,53,30,30.01,29.96,29.86,10,10,7,13,3,,0.00,1,,54
2013-9-14,93,84,75,64,61,57,61,50,30,30.00,29.94,29.89,10,10,10,12,9,20,0.00,0,,87
2013-9-15,93,84,75,66,60,57,61,47,31,30.06,30.00,29.97,10,10,10,10,7,16,0.00,1,,123
2013-9-16,95,86,77,68,62,55,69,50,26,30.12,30.06,30.00,10,10,10,10,2,,0.00,2,,129
2013-9-17,91,84,78,66,62,59,61,48,34,30.11,30.04,29.97,10,10,10,7,3,,0.00,2,,167
2013-9-18,95,86,78,70,62,55,69,48,26,30.05,29.98,29.89,10,10,10,12,5,21,0.00,0,,166
2013-9-19,89,80,71,70,66,61,94,65,43,30.03,29.96,29.90,10,9,0,10,7,,0.72,2,,155
2013-9-20,73,71,69,72,69,63,94,90,78,29.96,29.92,29.88,10,6,0,21,7,21,2.88,7,Rain,36
2013-9-21,82,72,62,63,52,41,83,58,24,30.01,29.95,29.89,10,10,10,16,10,25,0.00,2,,6
2013-9-22,82,70,59,55,51,46,77,56,28,29.98,29.90,29.83,10,10,10,8,1,,0.00,0,,82
2013-9-23,84,72,60,55,51,45,72,53,25,29.91,29.85,29.78,10,10,10,12,3,,0.00,0,,135
2013-9-24,91,78,66,64,54,43,83,51,21,29.97,29.90,29.86,10,10,10,13,1,26,0.00,0,,331
2013-9-25,93,76,60,55,50,45,72,46,19,29.94,29.88,29.80,10,10,3,6,1,,0.00,0,,141
2013-9-26,91,80,69,57,51,46,60,39,23,29.92,29.86,29.82,10,10,10,13,6,21,0.00,0,,164
2013-9-27,87,79,71,70,62,55,78,62,44,29.97,29.91,29.85,10,10,10,14,7,23,0.00,2,,161
2013-9-28,84,78,71,75,70,64,88,80,66,30.04,29.97,29.93,10,9,2,14,9,23,0.00,5,,183
2013-9-29,80,71,62,,,,,,,30.08,29.99,29.93,10,10,10,9,5,,0.00,1,,328
2013-9-30,84,72,60,63,56,46,77,54,27,29.94,29.89,29.84,10,10,10,12,3,,0.00,0,,164